createdAt,value
2019-03-03T00:01:24.531Z,100.13
2019-03-03T00:04:06.870Z,95.20
2019-03-03T00:06:48.186Z,95.77
2019-03-03T00:09:27.728Z,100.47
2019-03-03T00:12:12.129Z,95.93
2019-03-03T00:14:48.281Z,95.10
2019-03-03T00:17:35.701Z,105.83
2019-03-03T00:20:13.109Z,99.13
2019-03-03T00:23:03.665Z,93.90
2019-03-03T00:25:42.636Z,88.20
2019-03-03T00:28:24.407Z,83.73
2019-03-03T00:31:11.575Z,84.63
2019-03-03T00:33:58.741Z,86.30
2019-03-03T00:36:53.924Z,83.67
2019-03-03T00:40:06.365Z,83.33
2019-03-03T00:43:00.223Z,88.33
2019-03-03T00:46:10.993Z,91.53
2019-03-03T00:49:22.457Z,93.23
2019-03-03T00:52:33.844Z,88.33
2019-03-03T00:55:30.732Z,93.60
2019-03-03T00:58:42.223Z,93.73
2019-03-03T01:01:53.227Z,96.40
2019-03-03T01:04:40.849Z,103.83
2019-03-03T01:07:45.777Z,88.17
2019-03-03T01:10:43.724Z,111.07
2019-03-03T01:13:56.390Z,105.27
2019-03-03T01:17:04.396Z,91.00
2019-03-03T01:19:53.928Z,100.43
2019-03-03T01:22:46.154Z,104.90
2019-03-03T01:25:25.800Z,95.57
2019-03-03T01:28:17.968Z,96.50
2019-03-03T01:31:08.189Z,95.83
2019-03-03T01:33:53.434Z,102.13
2019-03-03T01:36:37.307Z,102.07
2019-03-03T01:39:20.693Z,106.23
2019-03-03T01:42:17.422Z,96.57
2019-03-03T01:45:03.149Z,99.70
2019-03-03T01:47:52.994Z,102.67
2019-03-03T01:50:34.285Z,106.43
2019-03-03T01:53:23.342Z,107.37
2019-03-03T01:56:18.817Z,107.10
2019-03-03T01:58:58.546Z,106.87
2019-03-03T02:01:34.595Z,119.13
2019-03-03T02:04:09.983Z,108.77
2019-03-03T02:06:50.683Z,122.30
2019-03-03T02:09:42.150Z,111.07
2019-03-03T02:12:22.715Z,105.47
2019-03-03T02:15:10.884Z,120.80
2019-03-03T02:17:54.914Z,112.50
2019-03-03T02:20:36.229Z,116.77
2019-03-03T02:23:10.150Z,126.37
2019-03-03T02:25:48.594Z,119.93
2019-03-03T02:28:33.119Z,112.33
2019-03-03T02:31:15.499Z,126.90
2019-03-03T02:33:57.827Z,122.60
2019-03-03T02:36:38.892Z,122.53
2019-03-03T02:39:17.320Z,132.73
2019-03-03T02:42:02.571Z,125.47
2019-03-03T02:44:43.565Z,129.50
2019-03-03T02:47:27.028Z,123.83
2019-03-03T02:50:05.543Z,131.17
2019-03-03T02:52:46.863Z,129.10
2019-03-03T02:55:28.408Z,120.30
2019-03-03T02:58:08.060Z,135.97
2019-03-03T03:00:59.185Z,129.17
2019-03-03T03:03:48.875Z,129.40
2019-03-03T03:06:35.550Z,131.30
2019-03-03T03:09:29.797Z,129.93
2019-03-03T03:12:36.175Z,125.57
2019-03-03T03:15:36.090Z,128.57
2019-03-03T03:18:19.455Z,131.90
2019-03-03T03:21:40.892Z,143.43
2019-03-03T03:24:50.720Z,127.30
2019-03-03T03:27:54.527Z,126.57
2019-03-03T03:30:39.533Z,131.93
2019-03-03T03:33:49.801Z,135.30
2019-03-03T03:36:49.935Z,128.43
2019-03-03T03:39:52.894Z,125.13
2019-03-03T03:42:44.964Z,125.20
2019-03-03T03:45:58.997Z,134.13
2019-03-03T03:48:52.333Z,135.33
2019-03-03T03:52:03.803Z,145.90
2019-03-03T03:55:18.182Z,121.13
2019-03-03T03:58:19.919Z,141.07
2019-03-03T04:01:19.394Z,128.80
2019-03-03T04:04:19.552Z,140.03
2019-03-03T04:07:12.683Z,140.53
2019-03-03T04:10:00.803Z,131.10
2019-03-03T04:13:16.475Z,133.07
2019-03-03T04:16:13.658Z,133.23
2019-03-03T04:19:14.341Z,132.20
2019-03-03T04:22:29.970Z,121.83
2019-03-03T04:25:28.166Z,136.97
2019-03-03T04:29:02.185Z,121.33
2019-03-03T04:32:22.367Z,122.47
2019-03-03T04:35:24.829Z,128.67
2019-03-03T04:38:43.074Z,124.67
2019-03-03T04:41:38.079Z,115.87
2019-03-03T04:44:49.099Z,124.73
2019-03-03T04:47:32.738Z,126.33
2019-03-03T04:50:30.109Z,117.03
2019-03-03T04:53:33.482Z,122.50
2019-03-03T04:56:33.472Z,127.27
2019-03-03T04:59:51.399Z,129.83
2019-03-03T05:03:01.111Z,110.80
2019-03-03T05:06:01.970Z,116.27
2019-03-03T05:09:05.435Z,123.10
2019-03-03T05:12:40.921Z,131.47
2019-03-03T05:15:43.564Z,118.87
2019-03-03T05:18:32.277Z,120.83
2019-03-03T05:21:05.074Z,130.97
2019-03-03T05:23:53.766Z,122.83
2019-03-03T05:26:37.244Z,121.43
2019-03-03T05:29:13.230Z,114.93
2019-03-03T05:31:53.003Z,124.23
2019-03-03T05:34:33.378Z,123.10
2019-03-03T05:37:18.004Z,131.40
2019-03-03T05:39:58.002Z,121.77
2019-03-03T05:42:39.058Z,120.93
2019-03-03T05:45:26.381Z,129.87
2019-03-03T05:48:08.974Z,131.13
2019-03-03T05:50:45.812Z,127.90
2019-03-03T05:53:28.757Z,126.80
2019-03-03T05:56:08.875Z,128.33
2019-03-03T05:58:59.409Z,125.40
2019-03-03T06:01:38.459Z,131.57
2019-03-03T06:04:27.482Z,125.77
2019-03-03T06:07:10.394Z,123.80
2019-03-03T06:09:57.854Z,126.57
2019-03-03T06:12:46.403Z,119.90
2019-03-03T06:15:34.277Z,120.07
2019-03-03T06:18:18.506Z,124.80
2019-03-03T06:20:58.211Z,134.80
2019-03-03T06:23:41.547Z,135.80
2019-03-03T06:26:22.899Z,132.40
2019-03-03T06:29:05.383Z,142.03
2019-03-03T06:31:44.501Z,128.23
2019-03-03T06:34:24.305Z,133.07
2019-03-03T06:37:03.260Z,132.67
2019-03-03T06:39:56.268Z,138.80
2019-03-03T06:42:38.084Z,138.40
2019-03-03T06:45:29.326Z,151.07
2019-03-03T06:48:08.896Z,144.53
2019-03-03T06:50:43.446Z,136.43
2019-03-03T06:53:24.349Z,144.63
2019-03-03T06:56:02.272Z,142.57
2019-03-03T06:58:55.760Z,148.73
2019-03-03T07:01:30.427Z,145.03
2019-03-03T07:04:21.984Z,147.83
2019-03-03T07:07:02.348Z,143.97
2019-03-03T07:09:39.145Z,139.83
2019-03-03T07:12:15.187Z,138.50
2019-03-03T07:14:54.933Z,136.30
2019-03-03T07:17:38.549Z,148.40
2019-03-03T07:20:17.888Z,133.63
2019-03-03T07:22:58.225Z,125.73
2019-03-03T07:25:41.987Z,149.23
2019-03-03T07:28:18.178Z,131.80
2019-03-03T07:31:13.692Z,136.17
2019-03-03T07:34:03.072Z,130.37
2019-03-03T07:36:48.540Z,131.80
2019-03-03T07:39:25.863Z,125.87
2019-03-03T07:42:06.231Z,129.43
2019-03-03T07:44:43.374Z,128.13
2019-03-03T07:47:21.145Z,130.53
2019-03-03T07:50:14.511Z,127.03
2019-03-03T07:53:11.919Z,130.43
2019-03-03T07:55:54.433Z,121.50
2019-03-03T07:58:40.877Z,120.60
2019-03-03T08:01:19.747Z,126.30
2019-03-03T08:03:54.553Z,122.93
2019-03-03T08:06:27.407Z,122.00
2019-03-03T08:09:05.608Z,122.67
2019-03-03T08:11:40.776Z,126.73
2019-03-03T08:14:16.554Z,121.73
2019-03-03T08:16:49.737Z,119.73
2019-03-03T08:19:30.485Z,115.33
2019-03-03T08:22:17.194Z,111.70
2019-03-03T08:24:59.331Z,102.50
2019-03-03T08:27:40.314Z,97.70
2019-03-03T08:30:17.495Z,100.97
2019-03-03T08:32:50.402Z,106.83
2019-03-03T08:35:28.534Z,100.00
2019-03-03T08:38:04.575Z,94.53
2019-03-03T08:40:43.634Z,104.97
2019-03-03T08:43:38.201Z,102.20
2019-03-03T08:46:34.536Z,101.50
2019-03-03T08:49:24.106Z,100.90
2019-03-03T08:52:05.917Z,98.73
2019-03-03T08:55:15.211Z,104.67
2019-03-03T08:58:05.948Z,111.17
2019-03-03T09:01:04.459Z,104.33
2019-03-03T09:03:46.903Z,112.40
2019-03-03T09:06:43.808Z,104.37
2019-03-03T09:09:44.709Z,105.53
2019-03-03T09:12:44.054Z,106.53
2019-03-03T09:15:22.803Z,96.53
2019-03-03T09:18:27.853Z,107.60
2019-03-03T09:21:16.498Z,93.77
2019-03-03T09:24:13.786Z,92.67
2019-03-03T09:27:23.137Z,97.60
2019-03-03T09:30:11.410Z,92.00
2019-03-03T09:33:07.273Z,87.00
2019-03-03T09:36:01.289Z,89.30
2019-03-03T09:38:53.803Z,88.07
2019-03-03T09:41:43.946Z,94.13
2019-03-03T09:44:36.777Z,97.37
2019-03-03T09:47:32.598Z,91.17
2019-03-03T09:50:19.451Z,91.07
2019-03-03T09:53:11.818Z,85.23
2019-03-03T09:56:10.499Z,94.83
2019-03-03T09:59:15.175Z,87.00
2019-03-03T10:02:02.737Z,87.47
2019-03-03T10:04:48.254Z,86.70
2019-03-03T10:07:55.594Z,81.77
2019-03-03T10:10:32.838Z,79.03
2019-03-03T10:13:25.109Z,82.40
2019-03-03T10:16:33.638Z,76.40
2019-03-03T10:19:23.546Z,79.83
2019-03-03T10:22:12.068Z,69.87
2019-03-03T10:25:00.649Z,72.70
2019-03-03T10:27:45.384Z,73.43
2019-03-03T10:30:42.009Z,70.00
2019-03-03T10:33:21.323Z,78.27
2019-03-03T10:36:09.308Z,79.17
2019-03-03T10:38:51.619Z,75.07
2019-03-03T10:41:40.415Z,76.10
2019-03-03T10:44:32.266Z,70.77
2019-03-03T10:47:28.838Z,76.77
2019-03-03T10:50:27.891Z,70.37
2019-03-03T10:53:24.006Z,71.57
2019-03-03T10:56:21.343Z,71.53
2019-03-03T10:59:00.147Z,72.50
2019-03-03T11:01:59.222Z,72.27
2019-03-03T11:04:49.116Z,64.73
2019-03-03T11:07:42.370Z,72.93
2019-03-03T11:10:32.225Z,75.37
2019-03-03T11:13:34.509Z,70.77
2019-03-03T11:16:42.652Z,72.27
2019-03-03T11:19:30.108Z,76.70
2019-03-03T11:22:33.673Z,75.37
2019-03-03T11:25:37.950Z,69.80
2019-03-03T11:28:36.155Z,72.17
2019-03-03T11:31:35.544Z,82.07
2019-03-03T11:34:29.890Z,74.27
2019-03-03T11:37:29.502Z,74.03
2019-03-03T11:40:38.781Z,79.53
2019-03-03T11:43:45.997Z,73.43
2019-03-03T11:46:48.147Z,76.93
2019-03-03T11:49:39.189Z,77.90
2019-03-03T11:52:26.009Z,83.53
2019-03-03T11:55:23.238Z,84.00
2019-03-03T11:58:18.792Z,79.20
2019-03-03T12:01:02.469Z,77.70
2019-03-03T12:04:01.589Z,76.13
2019-03-03T12:06:58.570Z,79.53
2019-03-03T12:09:46.407Z,82.07
2019-03-03T12:12:36.482Z,82.60
2019-03-03T12:15:19.127Z,80.97
2019-03-03T12:18:19.459Z,89.10
2019-03-03T12:21:00.342Z,88.53
2019-03-03T12:23:52.579Z,86.30
2019-03-03T12:26:49.217Z,97.43
2019-03-03T12:29:57.235Z,91.77
2019-03-03T12:32:46.623Z,83.93
2019-03-03T12:35:44.628Z,88.43
2019-03-03T12:38:26.940Z,86.63
2019-03-03T12:41:19.252Z,87.83
2019-03-03T12:44:15.949Z,84.10
2019-03-03T12:47:00.534Z,80.73
2019-03-03T12:49:46.774Z,83.23
2019-03-03T12:52:28.999Z,76.40
2019-03-03T12:55:23.431Z,81.50
2019-03-03T12:58:12.128Z,80.67
2019-03-03T13:01:04.266Z,81.07
2019-03-03T13:03:53.372Z,80.53
2019-03-03T13:06:46.578Z,78.57
2019-03-03T13:09:43.456Z,78.10
2019-03-03T13:12:43.051Z,77.63
2019-03-03T13:15:41.841Z,77.20
2019-03-03T13:18:19.138Z,77.27
2019-03-03T13:21:11.223Z,81.33
2019-03-03T13:23:57.191Z,70.30
2019-03-03T13:26:53.536Z,77.63
2019-03-03T13:29:40.068Z,80.77
2019-03-03T13:32:19.421Z,76.20
2019-03-03T13:35:12.007Z,77.03
2019-03-03T13:37:54.797Z,74.07
2019-03-03T13:40:34.884Z,73.30
2019-03-03T13:43:08.599Z,73.93
2019-03-03T13:45:40.293Z,73.63
2019-03-03T13:48:15.920Z,76.40
2019-03-03T13:50:50.726Z,72.60
2019-03-03T13:53:25.561Z,71.97
2019-03-03T13:56:05.642Z,72.17
2019-03-03T13:58:52.769Z,71.03
2019-03-03T14:01:30.325Z,72.67
2019-03-03T14:04:03.697Z,68.13
2019-03-03T14:06:37.168Z,73.63
2019-03-03T14:09:12.263Z,80.50
2019-03-03T14:11:51.723Z,74.10
2019-03-03T14:14:22.795Z,76.83
2019-03-03T14:17:02.472Z,74.77
2019-03-03T14:19:35.848Z,72.20
2019-03-03T14:22:07.396Z,71.70
2019-03-03T14:24:40.642Z,70.53
2019-03-03T14:27:12.918Z,80.63
2019-03-03T14:29:44.031Z,73.90
2019-03-03T14:32:20.738Z,72.80
2019-03-03T14:34:53.282Z,75.27
2019-03-03T14:37:25.259Z,73.67
2019-03-03T14:40:03.126Z,71.63
2019-03-03T14:42:37.398Z,74.07
2019-03-03T14:45:09.709Z,77.93
2019-03-03T14:47:40.982Z,77.07
2019-03-03T14:50:12.354Z,73.20
2019-03-03T14:52:43.810Z,79.53
2019-03-03T14:55:16.925Z,75.90
2019-03-03T14:58:01.122Z,76.07
2019-03-03T15:00:41.587Z,76.27
2019-03-03T15:03:14.149Z,73.93
2019-03-03T15:05:45.278Z,72.93
2019-03-03T15:08:19.176Z,71.90
2019-03-03T15:10:50.793Z,77.47
2019-03-03T15:13:21.577Z,78.80
2019-03-03T15:15:52.232Z,74.60
2019-03-03T15:18:22.667Z,79.63
2019-03-03T15:20:52.960Z,102.27
2019-03-03T15:23:23.388Z,96.90
2019-03-03T15:25:53.903Z,83.40
2019-03-03T15:28:25.455Z,82.97
2019-03-03T15:30:56.579Z,66.17
2019-03-03T15:33:27.230Z,66.63
2019-03-03T15:35:59.418Z,64.33
2019-03-03T15:38:30.230Z,57.23
2019-03-03T15:41:01.250Z,58.63
2019-03-03T15:43:31.864Z,52.83
2019-03-03T15:46:02.498Z,58.03
2019-03-03T15:48:32.854Z,110.90
2019-03-03T15:51:03.456Z,124.43
2019-03-03T15:53:34.124Z,89.70
2019-03-03T15:56:04.730Z,80.70
2019-03-03T15:58:36.852Z,77.00
2019-03-03T16:01:15.310Z,61.53
2019-03-03T16:03:46.651Z,57.47
2019-03-03T16:06:19.121Z,53.57
2019-03-03T16:08:50.370Z,53.23
2019-03-03T16:11:22.967Z,55.17
2019-03-03T16:13:54.304Z,57.50
2019-03-03T16:16:26.389Z,49.07
2019-03-03T16:18:57.869Z,47.53
2019-03-03T16:21:30.775Z,70.37
2019-03-03T16:24:02.171Z,76.67
2019-03-03T16:26:33.968Z,60.13
2019-03-03T16:29:05.995Z,51.83
2019-03-03T16:31:43.215Z,51.27
2019-03-03T16:34:15.669Z,54.77
2019-03-03T16:36:48.882Z,53.27
2019-03-03T16:39:24.185Z,46.93
2019-03-03T16:41:58.332Z,46.00
2019-03-03T16:44:33.578Z,44.50
2019-03-03T16:47:06.720Z,45.97
2019-03-03T16:49:39.684Z,43.07
2019-03-03T16:52:13.396Z,44.37
2019-03-03T16:54:47.917Z,50.90
2019-03-03T16:57:22.338Z,50.60
2019-03-03T16:59:56.533Z,47.70
2019-03-03T17:02:30.485Z,43.90
2019-03-03T17:05:03.977Z,48.53
2019-03-03T17:07:39.214Z,48.97
2019-03-03T17:10:12.441Z,45.57
2019-03-03T17:12:45.615Z,45.43
2019-03-03T17:15:20.509Z,46.70
2019-03-03T17:17:53.821Z,46.83
2019-03-03T17:20:35.393Z,46.40
2019-03-03T17:23:08.336Z,59.40
2019-03-03T17:25:41.134Z,59.30
2019-03-03T17:28:14.827Z,64.30
2019-03-03T17:30:51.235Z,63.20
2019-03-03T17:33:25.535Z,57.67
2019-03-03T17:36:01.221Z,47.87
2019-03-03T17:38:37.485Z,43.43
2019-03-03T17:41:15.555Z,38.17
2019-03-03T17:43:49.203Z,40.03
2019-03-03T17:46:25.776Z,40.43
2019-03-03T17:49:02.314Z,37.83
2019-03-03T17:51:38.703Z,42.87
2019-03-03T17:54:12.773Z,39.87
2019-03-03T17:56:52.606Z,43.10
2019-03-03T17:59:33.481Z,43.60
2019-03-03T18:02:14.471Z,45.37
2019-03-03T18:04:55.030Z,40.13
2019-03-03T18:07:33.788Z,41.10
2019-03-03T18:10:08.551Z,50.17
2019-03-03T18:12:40.659Z,48.47
2019-03-03T18:15:12.780Z,49.63
2019-03-03T18:17:43.822Z,49.00
2019-03-03T18:20:15.561Z,65.53
2019-03-03T18:22:48.048Z,62.47
2019-03-03T18:25:19.726Z,73.07
2019-03-03T18:27:51.307Z,72.97
2019-03-03T18:30:23.411Z,75.97
2019-03-03T18:32:56.798Z,88.00
2019-03-03T18:35:29.649Z,80.77
2019-03-03T18:38:03.025Z,75.17
2019-03-03T18:40:34.667Z,91.40
2019-03-03T18:43:09.803Z,75.40
2019-03-03T18:45:43.568Z,69.10
2019-03-03T18:48:21.541Z,72.43
2019-03-03T18:50:58.344Z,67.50
2019-03-03T18:53:30.579Z,71.67
2019-03-03T18:56:07.183Z,75.97
2019-03-03T18:58:42.606Z,81.87
2019-03-03T19:01:14.890Z,72.83
2019-03-03T19:03:47.924Z,72.23
2019-03-03T19:06:20.471Z,65.47
2019-03-03T19:08:51.590Z,71.47
2019-03-03T19:11:23.711Z,72.33
2019-03-03T19:13:56.865Z,80.53
2019-03-03T19:16:29.044Z,85.73
2019-03-03T19:19:01.936Z,81.47
2019-03-03T19:21:33.687Z,76.73
2019-03-03T19:24:10.066Z,78.30
2019-03-03T19:26:43.780Z,85.53
2019-03-03T19:29:15.026Z,77.70
2019-03-03T19:31:45.568Z,80.07
2019-03-03T19:34:18.579Z,83.67
2019-03-03T19:36:49.475Z,79.83
2019-03-03T19:39:24.759Z,81.10
2019-03-03T19:42:02.635Z,81.27
2019-03-03T19:44:35.050Z,79.83
2019-03-03T19:47:06.070Z,90.60
2019-03-03T19:49:38.119Z,82.50
2019-03-03T19:52:11.848Z,74.13
2019-03-03T19:54:44.246Z,74.50
2019-03-03T19:57:14.652Z,75.53
2019-03-03T19:59:45.665Z,85.83
2019-03-03T20:02:16.132Z,78.83
2019-03-03T20:04:46.469Z,80.87
2019-03-03T20:07:16.696Z,74.20
2019-03-03T20:09:47.572Z,75.27
2019-03-03T20:12:18.098Z,78.73
2019-03-03T20:14:48.477Z,77.10
2019-03-03T20:17:19.418Z,67.97
2019-03-03T20:19:50.666Z,73.47
2019-03-03T20:22:21.395Z,71.93
2019-03-03T20:24:52.623Z,65.63
2019-03-03T20:27:24.696Z,69.30
2019-03-03T20:29:55.717Z,70.43
2019-03-03T20:32:26.803Z,76.27
2019-03-03T20:34:58.792Z,74.90
2019-03-03T20:37:30.745Z,83.80
2019-03-03T20:40:05.366Z,82.87
2019-03-03T20:42:38.598Z,76.27
2019-03-03T20:45:13.101Z,79.23
2019-03-03T20:47:45.927Z,79.97
2019-03-03T20:50:20.471Z,77.67
2019-03-03T20:52:55.332Z,83.90
2019-03-03T20:55:30.363Z,75.87
2019-03-03T20:58:03.527Z,80.00
2019-03-03T21:00:39.631Z,72.20
2019-03-03T21:03:14.763Z,78.00
2019-03-03T21:05:53.746Z,82.70
2019-03-03T21:08:25.517Z,76.83
2019-03-03T21:11:02.334Z,76.60
2019-03-03T21:13:34.538Z,78.63
2019-03-03T21:16:08.921Z,80.30
2019-03-03T21:18:44.728Z,80.70
2019-03-03T21:21:27.185Z,85.90
2019-03-03T21:24:00.424Z,73.87
2019-03-03T21:26:36.488Z,76.07
2019-03-03T21:29:13.663Z,74.87
2019-03-03T21:31:45.954Z,81.60
2019-03-03T21:34:17.495Z,73.87
2019-03-03T21:36:54.159Z,83.63
2019-03-03T21:39:29.090Z,76.63
2019-03-03T21:42:02.309Z,73.73
2019-03-03T21:44:37.284Z,75.90
2019-03-03T21:47:08.934Z,70.73
2019-03-03T21:49:44.281Z,78.00
2019-03-03T21:52:20.458Z,76.00
2019-03-03T21:54:55.870Z,78.13
2019-03-03T21:57:28.468Z,77.60
2019-03-03T22:00:02.964Z,78.03
2019-03-03T22:02:37.162Z,74.93
2019-03-03T22:05:10.975Z,80.13
2019-03-03T22:07:44.823Z,80.20
2019-03-03T22:10:15.774Z,72.60
2019-03-03T22:12:51.090Z,70.10
2019-03-03T22:15:27.837Z,68.87
2019-03-03T22:18:01.661Z,66.40
2019-03-03T22:20:34.277Z,72.63
2019-03-03T22:23:07.602Z,73.57
2019-03-03T22:25:39.589Z,61.87
2019-03-03T22:28:10.953Z,68.33
2019-03-03T22:30:44.019Z,68.77
2019-03-03T22:33:19.566Z,68.23
2019-03-03T22:35:55.009Z,67.77
2019-03-03T22:38:29.359Z,81.93
2019-03-03T22:41:02.144Z,78.60
2019-03-03T22:43:38.672Z,70.77
2019-03-03T22:46:10.289Z,74.53
2019-03-03T22:48:42.086Z,76.63
2019-03-03T22:51:13.322Z,71.97
2019-03-03T22:53:47.769Z,68.20
2019-03-03T22:56:19.566Z,65.90
2019-03-03T22:58:54.653Z,69.17
2019-03-03T23:01:34.056Z,79.03
2019-03-03T23:04:38.618Z,79.87
2019-03-03T23:07:47.967Z,78.87
2019-03-03T23:11:18.559Z,84.13
2019-03-03T23:14:31.266Z,82.37
2019-03-03T23:17:27.054Z,94.13
2019-03-03T23:20:41.003Z,98.63
2019-03-03T23:23:53.705Z,93.50
2019-03-03T23:26:27.901Z,84.97
2019-03-03T23:29:04.772Z,94.57
2019-03-03T23:31:43.062Z,89.67
2019-03-03T23:34:19.318Z,95.27
2019-03-03T23:36:54.367Z,95.17
2019-03-03T23:39:28.151Z,98.23
2019-03-03T23:42:02.381Z,84.40
2019-03-03T23:44:34.124Z,89.93
2019-03-03T23:47:06.327Z,89.87
2019-03-03T23:49:39.203Z,84.60
2019-03-03T23:52:18.285Z,77.13
2019-03-03T23:54:55.689Z,84.80
2019-03-03T23:57:29.333Z,92.30
